Flight Track Log - Related Links

Times and Time Zones

All times are in EDT time to prevent confusion due to time zone crossing. See the EJA941 flight status page for this flight to view local times or setup timezone preferences in your user account.

Time Position Orientation Groundspeed Altitude Reporting Facility
EDT Latitude Longitude Course Direction KTS MPH feet Rate Location/Type
Sun 10:23:23 AM 40.8167 -74.1167 270° West 218 251 1,500  Level New TRACON
Sun 10:24:23 AM 40.8167 -74.2000 270° West 223 257 3,500 2,750 Climbing New TRACON
Sun 10:25:23 AM 40.8333 -74.2667 288° West 234 269 7,000 3,200 Climbing New TRACON
Sun 10:26:23 AM 40.9167 -74.3000 343° North 274 315 9,900 1,550 Climbing New TRACON
Sun 10:27:23 AM 41.0000 -74.3167 351° North 361 415 10,100 800 Climbing New TRACON
Sun 10:28:23 AM 41.1000 -74.3167 360° North 399 459 11,500 1,500 Climbing New TRACON
Sun 10:29:39 AM 41.2514 -74.3419 353° North 406 467 13,500 1,500 Climbing New Center
Sun 10:30:39 AM 41.3633 -74.3589 354° North 406 467 14,900 1,500 Climbing New Center
Sun 10:31:39 AM 41.4478 -74.4522 320° Northwest 388 447 16,500 1,500 Climbing New Center
Sun 10:32:39 AM 41.5022 -74.5742 301° West 382 440 17,900 1,350 Climbing New Center
Sun 10:33:39 AM 41.5564 -74.7047 299° West 397 457 19,200 1,400 Climbing New Center
Sun 10:34:39 AM 41.6103 -74.8328 299° West 397 457 20,700 1,500 Climbing New Center
Sun 10:35:39 AM 41.6661 -74.9639 300° West 404 465 22,200 1,500 Climbing New Center
Sun 10:36:39 AM 41.7219 -75.0925 300° West 404 465 23,700 1,500 Climbing New Center
Sun 10:37:39 AM 41.7814 -75.2297 300° West 412 474 25,200 1,500 Climbing New Center
Sun 10:38:39 AM 41.8367 -75.3644 299° West 412 474 26,700 1,450 Climbing New Center
Sun 10:39:39 AM 41.8936 -75.5019 299° West 412 474 28,100 1,450 Climbing New Center
Sun 10:40:39 AM 41.9525 -75.6400 300° West 417 480 29,600 1,500 Climbing New Center
Sun 10:41:39 AM 42.0111 -75.7839 299° West 429 494 31,100 1,550 Climbing New Center
Sun 10:42:39 AM 42.0697 -75.9225 300° West 434 499 32,700 1,600 Climbing New Center
Sun 10:43:39 AM 42.1319 -76.0728 299° West 439 505 34,300 1,800 Climbing New Center
Sun 10:44:39 AM 42.1836 -76.2197 295° West 444 511 36,300 1,362 Climbing New Center
Sun 10:46:22 AM 42.2500 -76.4667 290° West 450 518 38,000 626 Climbing Toronto Center
Sun 10:47:22 AM 42.3000 -76.6167 294° West 460 529 38,000  Level Toronto Center
Sun 10:48:22 AM 42.3667 -76.7667 301° West 470 541 38,000  Level Toronto Center
Sun 10:49:22 AM 42.4167 -76.9500 290° West 480 552 38,000  Level Toronto Center
Sun 10:50:22 AM 42.4500 -77.1000 287° West 480 552 38,000  Level Toronto Center
Sun 10:51:22 AM 42.5167 -77.2833 296° West 480 552 38,000 -1,000 Level Toronto Center
Sun 10:52:22 AM 42.5667 -77.4333 294° West 480 552 36,000  Descending Toronto Center
Sun 10:53:22 AM 42.6167 -77.6167 290° West 480 552 38,000 1,000 Climbing Toronto Center
Sun 10:54:22 AM 42.6667 -77.8000 290° West 480 552 38,000  Level Toronto Center
Sun 10:55:22 AM 42.7167 -77.9500 294° West 480 552 38,000  Level Toronto Center
Sun 10:56:22 AM 42.7667 -78.1333 290° West 480 552 38,000 -65 Level Toronto Center
Sun 10:56:54 AM 42.8000 -78.2086 301° West 479 551 37,900 -830 Descending Cleveland Center
Sun 10:57:56 AM 42.8489 -78.3769 292° West 479 551 36,700 -1,403 Descending Cleveland Center
Sun 10:58:58 AM 42.9081 -78.5792 292° West 481 554 35,000 -1,306 Descending Cleveland Center
Sun 11:00:00 AM 42.9353 -78.7592 282° West 482 555 34,000 -484 Descending Cleveland Center
Sun 11:01:02 AM 42.9442 -78.9422 274° West 484 557 34,000  Level Cleveland Center
Sun 11:02:04 AM 42.9536 -79.1258 274° West 487 560 34,000  Level Cleveland Center
Sun 11:03:06 AM 42.9628 -79.3100 274° West 488 562 34,000  Level Cleveland Center
Sun 11:04:08 AM 42.9728 -79.5294 274° West 485 558 34,000  Level Cleveland Center
Sun 11:05:10 AM 42.9803 -79.7133 273° West 486 559 34,000  Level Cleveland Center
Sun 11:06:12 AM 42.9875 -79.8978 273° West 487 560 34,000 -677 Level Cleveland Center
Sun 11:07:14 AM 42.9964 -80.0828 274° West 487 560 32,600 -2,308 Descending Cleveland Center
Sun 11:08:22 AM 43.0000 -80.3000 271° West 490 564 29,000 -2,906 Descending Toronto Center
Sun 11:09:22 AM 43.0000 -80.4833 270° West 490 564 26,400 -2,450 Descending Toronto Center
Sun 11:10:22 AM 43.0167 -80.6667 277° West 470 541 24,100 -1,450 Descending Toronto Center
Sun 11:11:22 AM 43.0000 -80.8167 261° West 450 518 23,500 -550 Descending Toronto Center
Sun 11:12:22 AM 43.0000 -81.0000 270° West 450 518 23,000 -250 Descending Toronto Center
Sun 11:13:22 AM 42.9667 -81.1333 251° West 440 506 23,000 -850 Level Toronto Center
Sun 11:14:22 AM 42.9500 -81.3167 263° West 440 506 21,300 -1,950 Descending Toronto Center
Sun 11:15:22 AM 42.9167 -81.4833 255° West 410 472 19,100 -2,250 Descending Toronto Center
Sun 11:16:22 AM 42.8833 -81.6167 251° West 420 483 16,800 -2,150 Descending Toronto Center
Sun 11:17:22 AM 42.8667 -81.7667 261° West 410 472 14,800 -2,100 Descending Toronto Center
Sun 11:18:22 AM 42.8333 -81.9000 251° West 410 472 12,600 -1,450 Descending Toronto Center
Sun 11:19:22 AM 42.7833 -82.0667 248° West 390 449 11,900 -750 Descending Toronto Center
Sun 11:20:22 AM 42.7667 -82.2000 260° West 390 449 11,100 -600 Descending Toronto Center
Sun 11:21:22 AM 42.7500 -82.3333 260° West 380 437 10,700 -500 Descending Toronto Center
Sun 11:22:22 AM 42.7500 -82.4667 270° West 360 414 10,100 -404 Descending Toronto Center
Sun 11:23:06 AM 42.7567 -82.5814 275° West 339 390 10,000 -145 Descending Cleveland Center
Sun 11:23:45 AM 42.7550 -82.6542 268° West 315 362 9,900 -689 Descending Cleveland Center
Sun 11:24:07 AM 42.7506 -82.6944 261° West 279 321 9,300 -1,548 Descending Cleveland Center
Sun 11:24:47 AM 42.7478 -82.7608 267° West 288 331 8,300 -1,574 Descending Cleveland Center
Sun 11:25:08 AM 42.7447 -82.8044 265° West 289 333 7,700 -1,839 Descending Cleveland Center
Sun 11:25:49 AM 42.7419 -82.8731 267° West 278 320 6,400 -1,770 Descending Cleveland Center
Sun 11:26:09 AM 42.7397 -82.9031 264° West 250 288 5,900 -1,645 Descending Cleveland Center
Sun 11:26:51 AM 42.7328 -82.9642 261° West 250 288 4,700 -1,770 Descending Cleveland Center
Sun 11:27:10 AM 42.7228 -82.9917 244° Southwest 251 289 4,100 -677 Descending Cleveland Center
Sun 11:27:53 AM 42.7069 -83.0553 251° West 245 282 4,000 -364 Descending Cleveland Center
Sun 11:28:16 AM 42.6986 -83.0906 252° West 248 285 3,700 -677 Descending Cleveland Center
Sun 11:28:55 AM 42.6839 -83.1353 246° West 248 285 3,300 -764 Descending Cleveland Center
Sun 11:29:11 AM 42.6758 -83.1700 252° West 242 278 3,000 -689 Descending Cleveland Center
Sun 11:29:56 AM 42.6678 -83.2203 258° West 242 278 2,600 -537 Descending Cleveland Center
Sun 11:30:18 AM 42.6689 -83.2625 272° West 216 249 2,400 -194 Descending Cleveland Center
Sun 11:30:58 AM 42.6667 -83.2975 265° West 219 252 2,400 -98 Level Cleveland Center
Sun 11:31:19 AM 42.6675 -83.3333 272° West 154 177 2,300 -677 Descending Cleveland Center
Sun 11:32:00 AM 42.6650 -83.3661 264° West 179 206 1,700 -885 Descending Cleveland Center
Sun 11:32:20 AM 42.6658 -83.3842 274° West 139 160 1,400 -387 Descending Cleveland Center
Sun 11:33:02 AM 42.6619 -83.4108 259° West 159 183 1,300 -143 Descending Cleveland Center
Sun 11:35:00 AM 42.6500 -83.4167 251° West  Level FlightAware

Login

Don't have an account? Register now (free) for customized features, flight alerts, and more!